23:58
Airports
History
Links
Donate
Help keep this website running!
PayPal
Bitcoin
This page is community maintained. The information is intended for PC simulator navigation or reference.
Always use approved charts for navigation.
SIYR
Fazenda Santa Terezinha
Fazenda Santa Terezinha (SIYR)
Tapejara, Rio Grande do Sul, Brazil (99950)
4
Lat/Lng:28° 3' 8" S / 51° 57' 39" W
-28.052222 / -51.960833
Elevation:2199'ft / 670mMSL
ID / ICAO:SIYR
Runways:1
Longest:10-28
Grass 708m / 2,323ft
Nearby Weather21:00 GMT 2018-01-23
Nearby weather at SBPF, Lauro Kurtz located 26.0 nautical miles from SIYR
Altimeter: 29.88
Visibility: 5.0 statute miles
Wind: 8 knots (from 220°)
Temp: 23°c / 73°f
Humidity: 94.1%

METAR: SBPF 232100Z 22008KT 8000 -RA FEW005 SCT040 BKN100 23/22 Q1012

(Powered by phpweather)
Runway 10 / 28
Dimensions:708.1 x 20.1m 2323' x 66'ft
Surface:Grass
Runway 10 [A]Runway 28 [B]
Heading:083°TH 263°TH
Lat:
Lng:
28° 3' 9.35"S
51° 57' 51.77"W
28° 3' 6.65"S
51° 57' 26.23"W
User Notes and Comments
28° 3' 8" S / 51° 57' 39" W
Distance To
Airport ID:
Nearby Airports
(C) Getulio Vargas 18.9 NM
SSGV NW 313°
4 Fazenda Coxilha 22.2 NM
SSCX WSW 258°
(U) Lauro Kurtz 26.0 NM
SBPF ( WX ) WSW 239°
(C) Erechim 32.9 NM
SSER NW 325°
(C) Aeroclub 36.5 NM
SSAQ WSW 247°
4 Fazenda Arco de Canto 41.0 NM
SSTD SSE 147°
(C) Sarandi 55.3 NM
SSXD W 275°
VFR Chart
Flight Planning at SkyVector.com